createdAt,value
2022-08-08T00:00:52.133Z,85.25
2022-08-08T00:02:32.874Z,85.17
2022-08-08T00:05:09.785Z,84.97
2022-08-08T00:07:49.274Z,85.71
2022-08-08T00:10:28.542Z,86.06
2022-08-08T00:13:05.505Z,85.51
2022-08-08T00:15:56.511Z,86.07
2022-08-08T00:18:38.489Z,86.43
2022-08-08T00:21:08.776Z,87.53
2022-08-08T00:23:47.629Z,86.84
2022-08-08T00:26:26.076Z,87.22
2022-08-08T00:29:03.867Z,87.07
2022-08-08T00:32:20.362Z,87.52
2022-08-08T00:34:59.557Z,86.97
2022-08-08T00:37:47.624Z,87.44
2022-08-08T00:41:12.841Z,88.68
2022-08-08T00:43:55.976Z,88.46
2022-08-08T00:46:58.947Z,88.97
2022-08-08T00:49:58.583Z,89.00
2022-08-08T00:52:40.705Z,88.56
2022-08-08T00:56:04.050Z,87.83
2022-08-08T00:59:44.693Z,88.54
2022-08-08T01:03:54.048Z,89.43
2022-08-08T01:05:59.589Z,89.49
2022-08-08T01:08:56.078Z,89.58
2022-08-08T01:12:07.039Z,89.14
2022-08-08T01:15:37.341Z,89.09
2022-08-08T01:18:53.396Z,89.09
2022-08-08T01:22:09.860Z,90.13
2022-08-08T01:25:02.158Z,89.42
2022-08-08T01:28:00.200Z,90.18
2022-08-08T01:32:02.789Z,90.48
2022-08-08T01:34:49.615Z,89.71
2022-08-08T01:37:57.828Z,90.24
2022-08-08T01:40:47.154Z,90.92
2022-08-08T01:43:34.625Z,91.04
2022-08-08T01:46:27.423Z,90.44
2022-08-08T01:49:02.757Z,90.73
2022-08-08T01:52:53.975Z,90.45
2022-08-08T01:55:19.690Z,91.04
2022-08-08T01:58:11.921Z,91.10
2022-08-08T02:01:09.054Z,90.78
2022-08-08T02:04:06.466Z,91.17
2022-08-08T02:06:57.419Z,91.59
2022-08-08T02:10:02.555Z,91.52
2022-08-08T02:12:35.417Z,91.26
2022-08-08T02:15:11.446Z,92.04
2022-08-08T02:17:54.374Z,91.55
2022-08-08T02:21:00.946Z,91.66
2022-08-08T02:23:23.011Z,92.17
2022-08-08T02:26:08.091Z,92.80
2022-08-08T02:28:51.678Z,92.22
2022-08-08T02:31:57.937Z,91.79
2022-08-08T02:35:10.722Z,92.11
2022-08-08T02:37:52.544Z,92.02
2022-08-08T02:40:40.226Z,92.36
2022-08-08T02:44:36.799Z,92.83
2022-08-08T02:46:55.118Z,92.78
2022-08-08T02:50:00.190Z,92.28
2022-08-08T02:52:51.088Z,92.65
2022-08-08T02:55:58.008Z,92.93
2022-08-08T02:59:26.019Z,92.81
2022-08-08T03:02:30.256Z,92.57
2022-08-08T03:05:32.906Z,92.85
2022-08-08T03:08:43.260Z,93.38
2022-08-08T03:12:02.504Z,93.81
2022-08-08T03:15:58.357Z,93.61
2022-08-08T03:17:59.901Z,93.21
2022-08-08T03:20:51.342Z,93.93
2022-08-08T03:23:39.741Z,94.11
2022-08-08T03:26:25.557Z,93.34
2022-08-08T03:29:03.286Z,93.22
2022-08-08T03:32:06.111Z,93.70
2022-08-08T03:34:39.836Z,94.38
2022-08-08T03:38:00.009Z,94.40
2022-08-08T03:40:07.179Z,94.17
2022-08-08T03:42:56.899Z,94.57
2022-08-08T03:46:05.746Z,93.62
2022-08-08T03:49:08.881Z,93.94
2022-08-08T03:51:10.653Z,93.82
2022-08-08T03:53:47.574Z,94.23
2022-08-08T03:56:31.834Z,94.68
2022-08-08T03:59:03.563Z,93.99
2022-08-08T04:02:12.916Z,94.26
2022-08-08T04:04:30.622Z,95.42
2022-08-08T04:07:01.969Z,94.12
2022-08-08T04:10:02.870Z,94.53
2022-08-08T04:12:30.729Z,95.25
2022-08-08T04:15:02.211Z,94.87
2022-08-08T04:17:58.451Z,94.22
2022-08-08T04:20:28.313Z,94.16
2022-08-08T04:23:03.588Z,94.48
2022-08-08T04:25:38.365Z,95.09
2022-08-08T04:28:39.947Z,94.86
2022-08-08T04:31:04.766Z,94.69
2022-08-08T04:33:42.073Z,94.53
2022-08-08T04:36:12.914Z,95.90
2022-08-08T04:38:43.809Z,96.64
2022-08-08T04:41:17.833Z,96.49
2022-08-08T04:43:57.224Z,95.98
2022-08-08T04:46:27.665Z,96.73
2022-08-08T04:49:01.281Z,96.88
2022-08-08T04:51:55.195Z,97.38
2022-08-08T04:54:40.006Z,96.60
2022-08-08T04:57:11.509Z,96.27
2022-08-08T04:59:44.275Z,96.20
2022-08-08T05:02:14.834Z,96.78
2022-08-08T05:04:50.125Z,97.40
2022-08-08T05:07:19.914Z,97.55
2022-08-08T05:09:49.799Z,96.95
2022-08-08T05:12:20.651Z,97.55
2022-08-08T05:14:54.704Z,98.37
2022-08-08T05:17:24.474Z,98.64
2022-08-08T05:20:09.270Z,97.73
2022-08-08T05:22:44.125Z,97.85
2022-08-08T05:25:15.863Z,98.89
2022-08-08T05:27:45.579Z,99.43
2022-08-08T05:30:28.425Z,99.71
2022-08-08T05:32:59.770Z,99.71
2022-08-08T05:35:34.288Z,100.00
2022-08-08T05:38:31.813Z,99.75
2022-08-08T05:41:07.791Z,99.31
2022-08-08T05:44:04.225Z,99.36
2022-08-08T05:46:31.510Z,100.00
2022-08-08T05:49:11.033Z,99.83
2022-08-08T05:51:48.156Z,99.90
2022-08-08T05:54:28.737Z,100.00
2022-08-08T05:57:57.551Z,100.00
2022-08-08T06:00:25.256Z,100.00
2022-08-08T06:03:24.800Z,100.00
2022-08-08T06:06:01.152Z,100.00
2022-08-08T06:08:35.125Z,100.00
2022-08-08T06:11:09.656Z,100.00
2022-08-08T06:13:47.901Z,100.00
2022-08-08T06:16:27.405Z,100.00
2022-08-08T06:19:11.243Z,100.00
2022-08-08T06:21:48.719Z,100.00
2022-08-08T06:24:30.460Z,100.00
2022-08-08T06:27:06.810Z,100.00
2022-08-08T06:29:59.682Z,100.00
2022-08-08T06:32:34.321Z,100.00
2022-08-08T06:35:11.856Z,100.00
2022-08-08T06:38:09.279Z,100.00
2022-08-08T06:40:48.533Z,100.00
2022-08-08T06:43:28.425Z,100.00
2022-08-08T06:46:08.734Z,100.00
2022-08-08T06:48:40.042Z,100.00
2022-08-08T06:51:17.117Z,100.00
2022-08-08T06:53:51.216Z,100.00
2022-08-08T06:56:33.131Z,100.00
2022-08-08T06:59:09.850Z,100.00
2022-08-08T07:02:16.998Z,100.00
2022-08-08T07:04:45.479Z,100.00
2022-08-08T07:07:28.457Z,100.00
2022-08-08T07:10:07.931Z,100.00
2022-08-08T07:12:49.720Z,100.00
2022-08-08T07:16:03.778Z,100.00
2022-08-08T07:18:40.553Z,100.00
2022-08-08T07:21:18.524Z,100.00
2022-08-08T07:24:01.355Z,100.00
2022-08-08T07:26:37.919Z,99.46
2022-08-08T07:29:11.523Z,98.26
2022-08-08T07:31:43.645Z,98.49
2022-08-08T07:34:20.424Z,97.58
2022-08-08T07:36:58.176Z,98.63
2022-08-08T07:39:45.233Z,97.77
2022-08-08T07:42:21.153Z,95.58
2022-08-08T07:45:03.924Z,96.31
2022-08-08T07:47:38.466Z,95.26
2022-08-08T07:50:12.177Z,93.84
2022-08-08T07:52:47.508Z,93.61
2022-08-08T07:55:28.779Z,91.95
2022-08-08T07:58:08.383Z,93.02
2022-08-08T08:00:46.318Z,93.38
2022-08-08T08:03:30.997Z,92.88
2022-08-08T08:06:16.676Z,91.83
2022-08-08T08:08:53.095Z,89.84
2022-08-08T08:11:33.998Z,88.04
2022-08-08T08:14:29.008Z,87.71
2022-08-08T08:16:59.740Z,86.63
2022-08-08T08:19:45.399Z,85.89
2022-08-08T08:22:31.456Z,86.21
2022-08-08T08:25:07.392Z,84.13
2022-08-08T08:27:46.588Z,84.47
2022-08-08T08:30:17.911Z,82.06
2022-08-08T08:32:51.300Z,82.25
2022-08-08T08:35:29.859Z,80.62
2022-08-08T08:38:18.053Z,79.07
2022-08-08T08:40:56.773Z,78.41
2022-08-08T08:43:29.453Z,78.28
2022-08-08T08:46:03.567Z,77.97
2022-08-08T08:48:36.769Z,77.42
2022-08-08T08:51:19.096Z,78.27
2022-08-08T08:53:55.923Z,74.79
2022-08-08T08:56:31.953Z,76.47
2022-08-08T08:59:15.386Z,73.60
2022-08-08T09:01:54.395Z,73.50
2022-08-08T09:04:31.626Z,74.08
2022-08-08T09:07:13.672Z,74.00
2022-08-08T09:09:55.107Z,70.75
2022-08-08T09:12:30.609Z,73.56
2022-08-08T09:15:06.354Z,72.17
2022-08-08T09:17:55.793Z,70.57
2022-08-08T09:22:02.947Z,72.56
2022-08-08T09:23:25.399Z,71.56
2022-08-08T09:26:02.538Z,69.65
2022-08-08T09:28:41.228Z,70.61
2022-08-08T09:31:26.909Z,70.60
2022-08-08T09:34:30.736Z,68.64
2022-08-08T09:37:29.281Z,68.25
2022-08-08T09:40:10.705Z,67.65
2022-08-08T09:42:44.393Z,65.79
2022-08-08T09:45:55.512Z,66.81
2022-08-08T09:48:18.355Z,65.30
2022-08-08T09:50:51.050Z,65.11
2022-08-08T09:53:53.176Z,66.44
2022-08-08T09:56:21.831Z,62.85
2022-08-08T09:58:58.017Z,61.74
2022-08-08T10:01:59.339Z,63.49
2022-08-08T10:04:41.295Z,65.57
2022-08-08T10:07:15.540Z,63.98
2022-08-08T10:09:59.579Z,62.27
2022-08-08T10:12:53.827Z,61.92
2022-08-08T10:15:27.971Z,62.49
2022-08-08T10:18:06.432Z,63.15
2022-08-08T10:20:57.881Z,59.74
2022-08-08T10:23:47.183Z,60.66
2022-08-08T10:26:29.692Z,62.22
2022-08-08T10:29:05.769Z,62.58
2022-08-08T10:31:49.287Z,63.81
2022-08-08T10:34:22.966Z,60.71
2022-08-08T10:36:56.362Z,62.89
2022-08-08T10:39:43.286Z,59.59
2022-08-08T10:42:17.563Z,62.51
2022-08-08T10:44:49.473Z,60.28
2022-08-08T10:47:22.138Z,58.31
2022-08-08T10:50:01.968Z,59.23
2022-08-08T10:52:36.143Z,57.02
2022-08-08T10:55:09.897Z,57.19
2022-08-08T10:57:49.806Z,58.45
2022-08-08T11:00:25.455Z,57.81
2022-08-08T11:02:55.931Z,58.92
2022-08-08T11:05:27.591Z,60.11
2022-08-08T11:08:30.720Z,57.71
2022-08-08T11:11:08.219Z,57.67
2022-08-08T11:14:00.563Z,55.35
2022-08-08T11:16:34.597Z,54.09
2022-08-08T11:19:10.469Z,55.85
2022-08-08T11:21:55.728Z,57.25
2022-08-08T11:24:29.911Z,58.36
2022-08-08T11:27:19.794Z,55.84
2022-08-08T11:30:20.586Z,55.69
2022-08-08T11:32:47.294Z,55.19
2022-08-08T11:35:24.921Z,53.29
2022-08-08T11:38:38.560Z,54.85
2022-08-08T11:40:58.039Z,53.88
2022-08-08T11:43:39.305Z,51.77
2022-08-08T11:46:17.266Z,53.16
2022-08-08T11:48:48.351Z,56.18
2022-08-08T11:51:30.793Z,55.33
2022-08-08T11:54:31.567Z,52.88
2022-08-08T11:57:14.630Z,55.22
2022-08-08T12:00:00.709Z,55.05
2022-08-08T12:02:51.198Z,53.80
2022-08-08T12:05:22.867Z,54.94
2022-08-08T12:07:56.596Z,55.33
2022-08-08T12:10:27.787Z,55.06
2022-08-08T12:13:09.778Z,54.80
2022-08-08T12:15:49.033Z,56.88
2022-08-08T12:18:24.325Z,55.25
2022-08-08T12:20:58.611Z,54.39
2022-08-08T12:23:43.636Z,53.54
2022-08-08T12:26:27.721Z,54.57
2022-08-08T12:29:25.694Z,55.41
2022-08-08T12:32:13.198Z,55.30
2022-08-08T12:34:48.960Z,53.77
2022-08-08T12:37:25.846Z,52.56
2022-08-08T12:40:22.480Z,55.25
2022-08-08T12:42:55.658Z,54.03
2022-08-08T12:45:57.988Z,52.86
2022-08-08T12:48:36.707Z,53.43
2022-08-08T12:51:22.556Z,53.17
2022-08-08T12:54:00.559Z,54.84
2022-08-08T12:56:37.416Z,51.94
2022-08-08T12:59:18.140Z,54.45
2022-08-08T13:01:57.602Z,55.37
2022-08-08T13:04:28.706Z,54.50
2022-08-08T13:07:03.051Z,54.88
2022-08-08T13:09:57.543Z,52.13
2022-08-08T13:12:32.541Z,55.16
2022-08-08T13:15:04.975Z,53.55
2022-08-08T13:18:10.058Z,52.89
2022-08-08T13:20:27.928Z,54.35
2022-08-08T13:23:29.953Z,53.45
2022-08-08T13:25:58.767Z,54.90
2022-08-08T13:28:33.099Z,54.83
2022-08-08T13:31:04.485Z,52.99
2022-08-08T13:33:42.757Z,55.54
2022-08-08T13:36:13.858Z,55.54
2022-08-08T13:38:43.753Z,53.90
2022-08-08T13:41:16.136Z,53.09
2022-08-08T13:43:50.763Z,54.26
2022-08-08T13:46:26.595Z,53.62
2022-08-08T13:49:11.246Z,52.10
2022-08-08T13:51:48.510Z,51.93
2022-08-08T13:54:29.434Z,51.85
2022-08-08T13:57:12.341Z,52.67
2022-08-08T13:59:48.733Z,51.34
2022-08-08T14:02:21.362Z,50.62
2022-08-08T14:05:08.889Z,54.00
2022-08-08T14:07:52.610Z,51.20
2022-08-08T14:10:33.106Z,51.78
2022-08-08T14:13:31.189Z,51.51
2022-08-08T14:16:16.048Z,53.02
2022-08-08T14:18:56.289Z,53.86
2022-08-08T14:21:51.851Z,52.88
2022-08-08T14:24:33.284Z,52.46
2022-08-08T14:27:07.695Z,53.06
2022-08-08T14:29:39.433Z,53.57
2022-08-08T14:32:16.056Z,53.16
2022-08-08T14:34:53.807Z,52.84
2022-08-08T14:37:28.004Z,54.73
2022-08-08T14:40:13.778Z,53.40
2022-08-08T14:42:54.812Z,54.13
2022-08-08T14:45:33.422Z,53.38
2022-08-08T14:48:27.306Z,53.05
2022-08-08T14:51:07.837Z,52.20
2022-08-08T14:53:55.005Z,52.50
2022-08-08T14:56:26.544Z,52.40
2022-08-08T14:58:56.359Z,52.67
2022-08-08T15:01:37.576Z,52.38
2022-08-08T15:04:11.027Z,53.01
2022-08-08T15:06:42.598Z,52.31
2022-08-08T15:09:19.574Z,52.99
2022-08-08T15:11:53.419Z,53.61
2022-08-08T15:14:26.446Z,53.63
2022-08-08T15:16:57.117Z,53.83
2022-08-08T15:19:28.232Z,54.30
2022-08-08T15:21:58.484Z,54.27
2022-08-08T15:24:32.031Z,52.78
2022-08-08T15:27:12.089Z,53.09
2022-08-08T15:29:51.657Z,52.83
2022-08-08T15:32:27.341Z,53.96
2022-08-08T15:35:00.438Z,53.56
2022-08-08T15:37:34.032Z,53.83
2022-08-08T15:40:11.355Z,51.58
2022-08-08T15:42:49.741Z,53.48
2022-08-08T15:45:23.101Z,53.44
2022-08-08T15:48:15.987Z,53.47
2022-08-08T15:50:58.772Z,53.02
2022-08-08T15:53:33.105Z,53.27
2022-08-08T15:56:13.317Z,53.26
2022-08-08T15:58:45.900Z,53.49
2022-08-08T16:01:18.297Z,53.38
2022-08-08T16:03:51.547Z,53.50
2022-08-08T16:06:28.958Z,53.00
2022-08-08T16:13:00.748Z,53.36
2022-08-08T16:13:02.012Z,54.71
2022-08-08T16:14:52.635Z,52.58
2022-08-08T16:17:57.792Z,52.82
2022-08-08T16:20:13.881Z,54.02
2022-08-08T16:22:44.081Z,53.38
2022-08-08T16:25:20.356Z,53.17
2022-08-08T16:27:57.912Z,53.33
2022-08-08T16:30:36.086Z,53.06
2022-08-08T16:33:06.687Z,52.50
2022-08-08T16:35:39.243Z,52.60
2022-08-08T16:38:16.172Z,52.39
2022-08-08T16:40:46.608Z,52.58
2022-08-08T16:43:22.158Z,52.24
2022-08-08T16:46:43.974Z,52.48
2022-08-08T16:48:43.572Z,53.54
2022-08-08T16:55:01.172Z,53.14
2022-08-08T16:55:04.911Z,52.64
2022-08-08T16:57:04.105Z,52.83
2022-08-08T16:59:52.038Z,53.03
2022-08-08T17:02:38.221Z,53.59
2022-08-08T17:05:10.050Z,53.90
2022-08-08T17:07:44.205Z,53.04
2022-08-08T17:10:19.102Z,53.33
2022-08-08T17:12:52.944Z,53.85
2022-08-08T17:15:25.581Z,54.26
2022-08-08T17:18:04.702Z,53.68
2022-08-08T17:20:40.601Z,53.39
2022-08-08T17:23:18.058Z,53.63
2022-08-08T17:26:05.877Z,53.54
2022-08-08T17:28:35.755Z,52.79
2022-08-08T17:31:15.077Z,53.38
2022-08-08T17:34:48.550Z,54.15
2022-08-08T17:37:03.059Z,53.47
2022-08-08T17:40:02.948Z,53.61
2022-08-08T17:42:23.565Z,53.57
2022-08-08T17:44:53.464Z,53.74
2022-08-08T17:47:27.998Z,53.30
2022-08-08T17:50:01.505Z,53.59
2022-08-08T17:52:33.375Z,53.80
2022-08-08T17:55:05.339Z,54.38
2022-08-08T17:57:39.563Z,54.78
2022-08-08T18:00:19.572Z,54.22
2022-08-08T18:03:08.045Z,54.47
2022-08-08T18:05:48.999Z,55.02
2022-08-08T18:08:25.270Z,55.02
2022-08-08T18:11:14.611Z,56.15
2022-08-08T18:13:47.090Z,56.55
2022-08-08T18:16:23.352Z,55.63
2022-08-08T18:18:57.571Z,57.02
2022-08-08T18:21:59.805Z,56.20
2022-08-08T18:24:21.738Z,57.61
2022-08-08T18:26:55.842Z,56.48
2022-08-08T18:29:33.698Z,57.33
2022-08-08T18:32:06.789Z,57.92
2022-08-08T18:34:42.739Z,58.99
2022-08-08T18:37:17.838Z,58.83
2022-08-08T18:40:02.246Z,59.33
2022-08-08T18:42:31.915Z,58.05
2022-08-08T18:45:09.274Z,59.20
2022-08-08T18:47:51.220Z,60.60
2022-08-08T18:50:24.398Z,60.73
2022-08-08T18:52:54.564Z,61.41
2022-08-08T18:55:28.042Z,62.52
2022-08-08T18:57:57.876Z,62.46
2022-08-08T19:00:29.057Z,63.40
2022-08-08T19:03:06.200Z,63.19
2022-08-08T19:05:45.145Z,63.58
2022-08-08T19:08:28.198Z,63.78
2022-08-08T19:11:01.559Z,64.28
2022-08-08T19:13:53.588Z,64.80
2022-08-08T19:16:23.721Z,65.14
2022-08-08T19:19:02.325Z,65.18
2022-08-08T19:21:49.455Z,65.08
2022-08-08T19:24:39.396Z,65.78
2022-08-08T19:27:11.025Z,65.07
2022-08-08T19:29:46.014Z,65.31
2022-08-08T19:32:21.762Z,65.68
2022-08-08T19:34:52.850Z,66.00
2022-08-08T19:37:43.168Z,66.30
2022-08-08T19:40:16.415Z,66.96
2022-08-08T19:42:47.202Z,66.50
2022-08-08T19:45:57.324Z,66.61
2022-08-08T19:48:28.160Z,66.86
2022-08-08T19:50:57.421Z,67.62
2022-08-08T19:53:51.069Z,67.23
2022-08-08T19:56:25.787Z,67.84
2022-08-08T19:59:12.327Z,67.66
2022-08-08T20:02:01.109Z,67.45
2022-08-08T20:04:32.310Z,67.69
2022-08-08T20:07:05.348Z,67.41
2022-08-08T20:09:57.169Z,68.22
2022-08-08T20:12:31.999Z,68.44
2022-08-08T20:15:14.189Z,68.48
2022-08-08T20:17:48.144Z,68.87
2022-08-08T20:20:22.241Z,69.34
2022-08-08T20:22:55.908Z,69.52
2022-08-08T20:25:31.337Z,70.26
2022-08-08T20:28:06.797Z,70.27
2022-08-08T20:30:53.197Z,69.65
2022-08-08T20:35:59.011Z,70.30
2022-08-08T20:38:37.496Z,71.06
2022-08-08T20:41:17.503Z,70.86
2022-08-08T20:43:50.303Z,71.02
2022-08-08T20:46:25.470Z,71.52
2022-08-08T20:48:58.578Z,71.38
2022-08-08T20:51:32.535Z,71.43
2022-08-08T20:54:13.965Z,71.71
2022-08-08T20:57:17.153Z,72.01
2022-08-08T20:59:41.720Z,72.20
2022-08-08T21:02:12.510Z,72.30
2022-08-08T21:04:43.585Z,71.85
2022-08-08T21:07:17.990Z,72.54
2022-08-08T21:10:12.807Z,72.57
2022-08-08T21:12:46.266Z,73.69
2022-08-08T21:16:04.212Z,74.39
2022-08-08T21:18:08.485Z,74.25
2022-08-08T21:20:38.183Z,74.74
2022-08-08T21:23:09.142Z,74.97
2022-08-08T21:25:39.320Z,75.39
2022-08-08T21:28:15.611Z,75.31
2022-08-08T21:30:52.005Z,74.77
2022-08-08T21:33:21.958Z,75.67
2022-08-08T21:36:17.477Z,75.65
2022-08-08T21:38:41.587Z,75.83
2022-08-08T21:41:29.047Z,76.36
2022-08-08T21:44:03.717Z,76.19
2022-08-08T21:48:08.148Z,76.61
2022-08-08T21:49:23.508Z,77.69
2022-08-08T21:54:32.649Z,76.97
2022-08-08T21:54:58.186Z,76.80
2022-08-08T21:57:42.228Z,77.62
2022-08-08T22:00:16.791Z,77.89
2022-08-08T22:02:56.093Z,78.35
2022-08-08T22:05:26.132Z,78.15
2022-08-08T22:08:00.311Z,78.22
2022-08-08T22:10:32.208Z,78.47
2022-08-08T22:13:18.040Z,78.48
2022-08-08T22:15:59.066Z,78.12
2022-08-08T22:18:31.188Z,78.36
2022-08-08T22:21:14.583Z,78.97
2022-08-08T22:23:50.810Z,78.66
2022-08-08T22:26:27.928Z,78.82
2022-08-08T22:29:14.926Z,78.63
2022-08-08T22:32:01.441Z,78.69
2022-08-08T22:34:39.646Z,78.76
2022-08-08T22:37:28.126Z,79.17
2022-08-08T22:40:01.160Z,79.09
2022-08-08T22:42:34.582Z,79.14
2022-08-08T22:45:05.355Z,79.52
2022-08-08T22:47:47.125Z,79.90
2022-08-08T22:50:27.189Z,79.81
2022-08-08T22:54:27.722Z,80.16
2022-08-08T22:55:58.453Z,80.19
2022-08-08T22:58:31.204Z,80.89
2022-08-08T23:02:01.677Z,81.65
2022-08-08T23:03:57.011Z,80.66
2022-08-08T23:06:27.318Z,81.15
2022-08-08T23:08:59.040Z,81.99
2022-08-08T23:12:27.756Z,81.62
2022-08-08T23:14:21.505Z,81.30
2022-08-08T23:16:59.196Z,81.28
2022-08-08T23:19:32.911Z,81.32
2022-08-08T23:22:04.993Z,81.74
2022-08-08T23:24:36.400Z,82.19
2022-08-08T23:27:07.380Z,82.21
2022-08-08T23:29:37.479Z,82.50
2022-08-08T23:32:10.421Z,82.47
2022-08-08T23:34:49.549Z,82.52
2022-08-08T23:38:01.702Z,83.13
2022-08-08T23:40:22.090Z,83.32
2022-08-08T23:42:52.648Z,83.65
2022-08-08T23:49:03.212Z,83.60
2022-08-08T23:49:04.912Z,83.38
2022-08-08T23:51:04.730Z,83.80
2022-08-08T23:53:56.105Z,83.53
2022-08-08T23:56:34.074Z,83.75
2022-08-08T23:59:04.027Z,83.68
